Time;durP1;ratioP1;P1;durP2;ratioP2;P2;SDS_P1;SDS_P2;PMS_P1;PMS_P2;Temp;Humidity;BMP_temperature;BMP_pressure;BME280_temperature;BME280_humidity;BME280_pressure;Samples;Min_cycle;Max_cycle;Signal;HPM_P1;HPM_P2
2021/12/27 00:00:40;;;;;;;9.17;8.23;;;8.80;99.90;;;;;;4973448;28;20909;-53
2021/12/27 00:03:06;;;;;;;9.25;8.32;;;9.00;99.90;;;;;;4973394;28;20186;-53
2021/12/27 00:05:32;;;;;;;8.52;7.72;;;8.90;99.90;;;;;;4972947;28;20400;-53
2021/12/27 00:07:57;;;;;;;9.03;8.13;;;8.90;99.90;;;;;;4972775;28;20633;-53
2021/12/27 00:10:27;;;;;;;8.63;7.70;;;8.90;99.90;;;;;;4973311;28;20981;-53
2021/12/27 00:12:53;;;;;;;8.48;7.72;;;8.40;99.90;;;;;;4972580;28;20447;-53
2021/12/27 00:15:18;;;;;;;8.80;7.97;;;9.10;99.90;;;;;;4985375;28;20191;-53
2021/12/27 00:17:45;;;;;;;7.87;7.07;;;8.70;99.90;;;;;;4972582;28;20214;-53
2021/12/27 00:20:14;;;;;;;7.03;6.30;;;9.00;99.90;;;;;;4972392;28;20199;-53
2021/12/27 00:22:41;;;;;;;8.05;6.95;;;9.00;99.90;;;;;;4973014;28;20176;-53
2021/12/27 00:25:07;;;;;;;7.70;7.00;;;8.90;99.90;;;;;;4973005;28;20268;-53
2021/12/27 00:27:33;;;;;;;9.07;8.27;;;9.00;99.90;;;;;;4972198;28;20256;-53
2021/12/27 00:29:59;;;;;;;9.03;8.07;;;8.80;99.90;;;;;;4972824;28;20213;-53
2021/12/27 00:32:25;;;;;;;8.68;7.82;;;8.90;99.90;;;;;;4979466;28;20269;-53
2021/12/27 00:34:51;;;;;;;10.70;8.40;;;9.10;99.90;;;;;;4972307;28;20188;-51
2021/12/27 00:37:16;;;;;;;12.13;8.70;;;8.80;99.90;;;;;;4984687;28;20595;-53
2021/12/27 00:39:42;;;;;;;7.67;6.97;;;9.00;99.90;;;;;;4972364;28;20631;-53
2021/12/27 00:42:08;;;;;;;8.67;7.60;;;9.00;99.90;;;;;;4978485;28;20206;-53
2021/12/27 00:44:33;;;;;;;8.50;7.70;;;9.10;99.90;;;;;;4977972;28;20184;-53
2021/12/27 00:47:00;;;;;;;9.03;8.13;;;8.90;99.90;;;;;;4972137;28;20444;-53
2021/12/27 00:49:26;;;;;;;10.15;7.75;;;8.60;99.90;;;;;;4984884;28;20210;-53
2021/12/27 00:51:51;;;;;;;8.20;7.27;;;8.90;99.90;;;;;;4971955;28;20197;-52
2021/12/27 00:54:17;;;;;;;9.30;8.40;;;8.90;99.90;;;;;;4972321;28;20406;-52
2021/12/27 00:56:43;;;;;;;8.10;7.10;;;9.00;99.90;;;;;;4974701;28;20192;-53
2021/12/27 00:59:10;;;;;;;8.40;7.45;;;9.10;99.90;;;;;;4977349;28;20670;-53
2021/12/27 01:01:36;;;;;;;8.60;7.75;;;9.10;99.90;;;;;;4972091;28;20181;-52
2021/12/27 01:04:02;;;;;;;8.50;6.68;;;9.10;99.90;;;;;;4972202;28;20191;-53
2021/12/27 01:06:27;;;;;;;7.75;6.95;;;9.10;99.90;;;;;;4972256;28;20235;-53
2021/12/27 01:08:53;;;;;;;8.83;7.93;;;9.10;99.90;;;;;;4971986;28;20204;-53
2021/12/27 01:11:38;;;;;;;8.85;7.70;;;8.90;99.90;;;;;;4971751;28;20408;-53
2021/12/27 01:14:13;;;;;;;8.35;6.97;;;8.90;99.90;;;;;;4969325;28;20188;-53
2021/12/27 01:16:41;;;;;;;7.30;6.60;;;8.90;99.90;;;;;;4971927;28;20191;-53
2021/12/27 01:19:07;;;;;;;8.85;6.80;;;9.00;99.90;;;;;;4967544;28;20231;-53
2021/12/27 01:21:33;;;;;;;8.02;7.22;;;8.90;99.90;;;;;;4971538;28;20188;-53
2021/12/27 01:23:59;;;;;;;8.10;7.30;;;9.00;99.90;;;;;;4972069;28;20193;-53
2021/12/27 01:26:25;;;;;;;9.48;7.40;;;8.90;99.90;;;;;;4971492;28;20259;-53
2021/12/27 01:28:52;;;;;;;8.25;7.35;;;8.90;99.90;;;;;;4971601;28;20238;-53
2021/12/27 01:31:18;;;;;;;8.60;7.28;;;8.80;99.90;;;;;;4971912;28;20549;-53
2021/12/27 01:33:46;;;;;;;9.52;7.85;;;8.80;99.90;;;;;;4971820;28;20585;-51
2021/12/27 01:36:12;;;;;;;7.53;6.72;;;8.80;99.90;;;;;;4971607;28;20622;-53
2021/12/27 01:38:40;;;;;;;8.02;6.68;;;8.80;99.90;;;;;;4971216;28;20228;-53
2021/12/27 01:41:09;;;;;;;7.65;6.85;;;9.00;99.90;;;;;;4978394;28;20184;-53
2021/12/27 01:43:37;;;;;;;9.82;8.55;;;8.70;99.90;;;;;;4971106;28;20212;-53
2021/12/27 01:46:24;;;;;;;7.82;6.85;;;8.90;99.90;;;;;;4971255;28;20180;-53
2021/12/27 01:48:55;;;;;;;11.13;7.72;;;8.90;99.90;;;;;;4971357;28;20259;-53
2021/12/27 01:51:24;;;;;;;10.18;7.90;;;8.60;99.90;;;;;;4971345;28;20194;-53
2021/12/27 01:53:50;;;;;;;10.27;7.40;;;8.70;99.90;;;;;;4971846;28;20274;-52
2021/12/27 01:56:20;;;;;;;8.82;6.72;;;8.60;99.90;;;;;;4972081;28;20634;-53
2021/12/27 01:58:47;;;;;;;8.55;7.28;;;8.50;99.90;;;;;;4971241;28;20705;-53
2021/12/27 02:01:13;;;;;;;11.65;7.80;;;8.60;99.90;;;;;;4971556;28;20200;-52
2021/12/27 02:03:43;;;;;;;7.95;6.90;;;8.50;99.90;;;;;;4971634;28;20224;-53
2021/12/27 02:06:11;;;;;;;9.75;7.68;;;8.40;99.90;;;;;;4971112;28;20189;-52
2021/12/27 02:08:38;;;;;;;10.00;8.18;;;8.10;99.90;;;;;;4971423;28;20208;-53
2021/12/27 02:11:05;;;;;;;8.20;6.88;;;8.30;99.90;;;;;;4971488;28;20247;-53
2021/12/27 02:13:32;;;;;;;8.18;6.90;;;8.40;99.90;;;;;;4984133;28;20905;-52
2021/12/27 02:15:58;;;;;;;9.18;8.15;;;8.20;99.90;;;;;;4976069;28;20200;-52
2021/12/27 02:18:24;;;;;;;9.67;8.20;;;8.10;99.90;;;;;;4975058;28;20722;-52
2021/12/27 02:20:50;;;;;;;10.13;7.78;;;8.30;99.90;;;;;;4975079;28;20192;-52
2021/12/27 02:23:17;;;;;;;9.77;8.77;;;8.20;99.90;;;;;;4981221;28;20728;-52
2021/12/27 02:25:48;;;;;;;9.93;7.70;;;8.30;99.90;;;;;;4975335;28;20188;-52
2021/12/27 02:28:14;;;;;;;11.10;8.48;;;8.30;99.90;;;;;;4976890;28;20208;-52
2021/12/27 02:30:43;;;;;;;10.15;7.30;;;8.40;99.90;;;;;;4976502;28;20259;-52
2021/12/27 02:33:10;;;;;;;11.48;7.85;;;8.10;99.90;;;;;;4975018;28;20192;-53
2021/12/27 02:35:48;;;;;;;9.30;7.57;;;8.00;99.90;;;;;;4974409;28;20212;-52
2021/12/27 02:38:18;;;;;;;11.07;8.10;;;8.40;99.90;;;;;;4974448;28;20216;-52
2021/12/27 02:40:44;;;;;;;9.02;8.13;;;8.10;99.90;;;;;;4974822;28;20208;-52
2021/12/27 02:43:16;;;;;;;8.32;7.32;;;8.00;99.90;;;;;;4974141;28;20764;-52
2021/12/27 02:45:48;;;;;;;9.70;8.32;;;8.10;99.90;;;;;;4974907;28;20192;-52
2021/12/27 02:48:16;;;;;;;9.52;7.30;;;8.20;99.90;;;;;;4982230;28;20236;-52
2021/12/27 02:50:43;;;;;;;9.32;8.15;;;8.20;99.90;;;;;;4974177;28;20216;-52
2021/12/27 02:53:10;;;;;;;10.95;8.20;;;7.90;99.90;;;;;;4974289;28;20283;-51
2021/12/27 02:55:37;;;;;;;9.05;7.85;;;8.00;99.90;;;;;;4974747;28;20271;-51
2021/12/27 02:58:03;;;;;;;9.00;7.53;;;8.00;99.90;;;;;;4982450;28;20222;-51
2021/12/27 03:00:33;;;;;;;8.50;7.47;;;7.90;99.90;;;;;;4974538;28;20195;-52
2021/12/27 03:02:59;;;;;;;10.20;7.47;;;8.10;99.90;;;;;;4974865;28;20641;-51
2021/12/27 03:05:27;;;;;;;9.30;7.13;;;7.80;99.90;;;;;;4974723;28;20192;-52
2021/12/27 03:07:53;;;;;;;9.05;7.75;;;8.10;99.90;;;;;;4974256;28;20519;-52
2021/12/27 03:10:22;;;;;;;7.20;6.20;;;8.20;99.90;;;;;;4974239;28;20195;-51
2021/12/27 03:12:49;;;;;;;7.75;6.95;;;8.00;99.90;;;;;;4973906;28;20682;-52
2021/12/27 03:15:17;;;;;;;9.73;7.25;;;8.10;99.90;;;;;;4974240;28;20188;-52
2021/12/27 03:17:45;;;;;;;9.90;7.65;;;7.90;99.90;;;;;;4973737;28;20673;-52
2021/12/27 03:20:13;;;;;;;7.90;7.00;;;7.90;99.90;;;;;;4976942;28;20214;-51
2021/12/27 03:22:41;;;;;;;8.45;6.60;;;8.10;99.90;;;;;;4974547;28;20212;-52
2021/12/27 03:25:12;;;;;;;7.57;6.50;;;7.70;99.90;;;;;;4973920;28;20669;-51
2021/12/27 03:27:38;;;;;;;6.72;5.82;;;7.90;99.90;;;;;;4984268;28;20219;-52
2021/12/27 03:30:10;;;;;;;6.70;5.97;;;7.90;99.90;;;;;;4973867;28;20220;-52
2021/12/27 03:32:36;;;;;;;9.38;6.05;;;7.80;99.90;;;;;;4974063;28;20436;-52
2021/12/27 03:35:12;;;;;;;6.53;5.90;;;7.90;99.90;;;;;;4973957;28;20184;-52
2021/12/27 03:37:47;;;;;;;6.80;6.07;;;8.10;99.90;;;;;;4982092;28;20203;-52
2021/12/27 03:40:16;;;;;;;7.43;6.25;;;8.10;99.90;;;;;;4973855;28;20238;-52
2021/12/27 03:42:42;;;;;;;6.78;5.88;;;8.10;99.90;;;;;;4981998;28;20190;-52
2021/12/27 03:45:09;;;;;;;6.83;5.37;;;8.20;99.90;;;;;;4973990;28;20191;-52
2021/12/27 03:47:35;;;;;;;5.90;5.30;;;8.30;99.90;;;;;;4972188;28;20918;-51
2021/12/27 03:50:02;;;;;;;5.45;4.75;;;8.30;99.90;;;;;;4973564;28;20216;-52
2021/12/27 03:52:28;;;;;;;6.55;5.53;;;8.10;99.90;;;;;;4973168;28;20230;-52
2021/12/27 03:54:54;;;;;;;5.50;5.00;;;8.20;99.90;;;;;;4975095;28;20196;-52
2021/12/27 03:57:19;;;;;;;5.20;4.70;;;7.90;99.90;;;;;;4974978;28;20274;-52
2021/12/27 04:02:12;;;;;;;6.90;5.73;;;8.50;99.90;;;;;;4973395;28;20555;-52
2021/12/27 04:04:38;;;;;;;6.15;4.93;;;8.50;99.90;;;;;;4973482;28;20186;-52
2021/12/27 04:07:07;;;;;;;4.57;4.10;;;8.40;99.90;;;;;;4972523;28;20207;-52
2021/12/27 04:09:33;;;;;;;3.90;3.60;;;8.40;99.90;;;;;;4973287;28;20208;-52
2021/12/27 04:11:59;;;;;;;5.18;3.75;;;8.50;99.90;;;;;;4974996;28;20188;-52
2021/12/27 04:14:25;;;;;;;4.37;3.93;;;8.40;99.90;;;;;;4982135;28;20195;-52
2021/12/27 04:16:52;;;;;;;4.90;4.40;;;8.40;99.90;;;;;;4972542;28;20189;-51
2021/12/27 04:19:17;;;;;;;4.57;4.18;;;8.90;99.90;;;;;;4973099;28;20749;-51
2021/12/27 04:21:43;;;;;;;4.93;3.70;;;8.50;99.90;;;;;;4978648;28;20280;-53
2021/12/27 04:24:09;;;;;;;4.45;4.00;;;8.50;99.90;;;;;;4972980;28;20181;-52
2021/12/27 04:26:35;;;;;;;5.43;4.30;;;8.70;99.90;;;;;;4972248;28;20547;-53
2021/12/27 04:29:00;;;;;;;4.00;3.60;;;8.60;99.90;;;;;;4975173;28;20208;-53
2021/12/27 04:31:26;;;;;;;4.10;3.70;;;8.50;99.90;;;;;;4973542;28;20186;-53
2021/12/27 04:33:52;;;;;;;3.90;3.60;;;8.60;99.90;;;;;;4984046;28;20184;-53
2021/12/27 04:36:17;;;;;;;4.10;3.63;;;8.30;99.90;;;;;;4971945;28;20645;-53
2021/12/27 04:38:43;;;;;;;4.23;3.80;;;8.40;99.90;;;;;;4972056;28;20526;-53
2021/12/27 04:41:11;;;;;;;4.20;3.80;;;8.60;99.90;;;;;;4973967;28;20546;-53
2021/12/27 04:43:37;;;;;;;4.80;4.30;;;8.50;99.90;;;;;;4982244;28;20609;-53
2021/12/27 04:46:03;;;;;;;4.25;3.95;;;8.30;99.90;;;;;;4972964;28;20271;-53
2021/12/27 04:48:29;;;;;;;4.10;3.70;;;8.40;99.90;;;;;;4972331;28;20214;-53
2021/12/27 04:50:55;;;;;;;3.50;2.83;;;8.70;99.90;;;;;;4971788;28;20188;-53
2021/12/27 04:53:21;;;;;;;3.80;3.50;;;8.70;99.90;;;;;;4972347;28;20267;-53
2021/12/27 04:55:46;;;;;;;5.30;4.27;;;8.40;99.90;;;;;;4972433;28;20444;-53
2021/12/27 04:58:16;;;;;;;4.30;3.90;;;8.40;99.90;;;;;;4971448;28;20224;-53
2021/12/27 05:00:43;;;;;;;5.35;3.80;;;8.60;99.90;;;;;;4986756;28;20188;-51
2021/12/27 05:03:10;;;;;;;4.13;3.72;;;8.50;99.90;;;;;;4974097;28;20191;-54
2021/12/27 05:05:37;;;;;;;5.32;4.25;;;8.60;99.90;;;;;;4973499;28;20189;-51
2021/12/27 05:08:03;;;;;;;4.40;4.00;;;8.40;99.90;;;;;;4971687;28;20250;-51
2021/12/27 05:10:30;;;;;;;4.68;3.90;;;8.50;99.90;;;;;;4972407;28;20188;-52
2021/12/27 05:12:56;;;;;;;4.22;3.75;;;8.30;99.90;;;;;;4972381;28;20551;-52
2021/12/27 05:15:23;;;;;;;3.90;3.60;;;8.40;99.90;;;;;;4987027;28;20193;-51
2021/12/27 05:17:48;;;;;;;4.72;4.18;;;8.30;99.90;;;;;;4972022;28;20205;-51
2021/12/27 05:20:14;;;;;;;4.57;4.13;;;8.30;99.90;;;;;;4972569;28;20192;-52
2021/12/27 05:22:40;;;;;;;4.57;4.17;;;8.70;99.90;;;;;;4971288;28;20692;-52
2021/12/27 05:25:09;;;;;;;4.32;3.92;;;8.60;99.90;;;;;;4972150;28;20278;-52
2021/12/27 05:27:36;;;;;;;4.10;3.70;;;8.60;99.90;;;;;;4980891;28;20213;-53
2021/12/27 05:30:02;;;;;;;4.40;3.80;;;8.50;99.90;;;;;;4971853;28;20209;-52
2021/12/27 05:32:28;;;;;;;4.10;3.70;;;8.50;99.90;;;;;;4971900;28;20184;-53
2021/12/27 05:34:54;;;;;;;3.40;2.87;;;8.40;99.90;;;;;;4971265;28;20181;-53
2021/12/27 05:37:19;;;;;;;3.70;3.30;;;8.50;99.90;;;;;;4975512;28;20212;-52
2021/12/27 05:39:45;;;;;;;4.10;3.70;;;8.60;99.90;;;;;;4971727;28;20211;-53
2021/12/27 05:42:11;;;;;;;4.80;4.07;;;8.60;99.90;;;;;;4977812;28;20614;-53
2021/12/27 05:44:36;;;;;;;3.60;3.30;;;8.50;99.90;;;;;;4971649;28;20196;-53
2021/12/27 05:47:02;;;;;;;3.70;3.30;;;8.40;99.90;;;;;;4971730;28;20189;-52
2021/12/27 05:49:28;;;;;;;4.18;3.00;;;8.60;99.90;;;;;;4973776;28;21061;-52
2021/12/27 05:51:54;;;;;;;3.30;3.00;;;8.50;99.90;;;;;;4975287;28;20196;-53
2021/12/27 05:54:20;;;;;;;3.63;3.20;;;8.70;99.90;;;;;;4980705;28;20940;-53
2021/12/27 05:56:47;;;;;;;3.05;2.67;;;8.80;99.90;;;;;;4981469;28;20207;-53
2021/12/27 05:59:13;;;;;;;3.50;3.10;;;8.70;99.90;;;;;;4975510;28;20640;-52
2021/12/27 06:01:40;;;;;;;3.75;3.45;;;8.80;99.90;;;;;;4981400;28;20275;-53
2021/12/27 06:04:06;;;;;;;3.90;3.30;;;9.00;99.90;;;;;;4980815;28;20180;-53
2021/12/27 06:06:31;;;;;;;3.40;3.10;;;8.60;99.90;;;;;;4978059;28;20211;-53
2021/12/27 06:08:57;;;;;;;3.60;3.03;;;8.90;99.90;;;;;;4974755;28;20571;-53
2021/12/27 06:11:23;;;;;;;3.70;3.07;;;8.50;99.90;;;;;;4974777;28;20264;-53
2021/12/27 06:13:49;;;;;;;3.80;3.23;;;8.70;99.90;;;;;;4975073;28;20439;-53
2021/12/27 06:16:15;;;;;;;5.97;3.53;;;8.60;99.90;;;;;;4975070;28;20284;-53
2021/12/27 06:18:41;;;;;;;3.30;3.00;;;8.80;99.90;;;;;;4974712;28;20482;-53
2021/12/27 06:21:06;;;;;;;4.10;3.53;;;8.70;99.90;;;;;;4983517;28;20188;-53
2021/12/27 06:23:32;;;;;;;4.70;4.20;;;8.50;99.90;;;;;;4975231;28;20314;-52
2021/12/27 06:25:59;;;;;;;4.00;3.63;;;8.30;99.90;;;;;;4974944;28;20435;-53
2021/12/27 06:28:25;;;;;;;4.28;3.88;;;8.30;99.90;;;;;;4979601;28;21007;-53
2021/12/27 06:30:50;;;;;;;5.27;4.23;;;8.30;99.90;;;;;;4978260;28;20196;-52
2021/12/27 06:33:16;;;;;;;3.93;3.50;;;8.20;99.90;;;;;;4974829;28;20204;-53
2021/12/27 06:35:42;;;;;;;4.67;3.80;;;7.90;99.90;;;;;;4980154;28;20195;-53
2021/12/27 06:38:08;;;;;;;5.40;4.60;;;7.90;99.90;;;;;;4988993;28;20212;-53
2021/12/27 06:40:34;;;;;;;4.55;4.15;;;8.10;99.90;;;;;;4984703;28;20916;-53
2021/12/27 06:42:59;;;;;;;4.20;3.80;;;8.10;99.90;;;;;;4979183;28;20196;-53
2021/12/27 06:45:26;;;;;;;5.50;4.60;;;7.90;99.90;;;;;;4989995;28;20196;-53
2021/12/27 06:47:52;;;;;;;4.55;4.15;;;7.80;99.90;;;;;;4974645;28;20524;-53
2021/12/27 06:50:17;;;;;;;5.30;4.37;;;7.70;99.90;;;;;;4974571;28;20713;-53
2021/12/27 06:52:44;;;;;;;3.43;3.13;;;7.60;99.90;;;;;;4974514;28;20414;-52
2021/12/27 06:55:11;;;;;;;4.97;3.55;;;7.40;99.90;;;;;;4974527;28;20564;-51
2021/12/27 06:57:37;;;;;;;4.53;4.13;;;7.40;99.90;;;;;;4975536;28;20687;-52
2021/12/27 07:00:07;;;;;;;4.65;4.25;;;7.40;99.90;;;;;;4974106;28;20231;-52
2021/12/27 07:02:33;;;;;;;4.40;4.00;;;7.20;99.90;;;;;;4974791;28;20176;-52
2021/12/27 07:04:59;;;;;;;5.53;5.03;;;7.30;99.90;;;;;;4978975;28;20677;-52
2021/12/27 07:07:24;;;;;;;4.30;3.90;;;7.20;99.90;;;;;;4974341;28;20436;-51
2021/12/27 07:09:50;;;;;;;8.27;4.23;;;7.30;99.90;;;;;;4973975;28;20303;-51
2021/12/27 07:12:17;;;;;;;5.55;4.60;;;6.90;99.90;;;;;;4973854;28;20195;-53
2021/12/27 07:14:43;;;;;;;5.38;4.85;;;6.90;99.90;;;;;;4974137;28;20687;-53
2021/12/27 07:17:09;;;;;;;6.25;4.97;;;7.00;99.90;;;;;;4973747;28;20215;-53
2021/12/27 07:19:35;;;;;;;7.55;5.15;;;7.10;99.90;;;;;;4974211;28;20729;-52
2021/12/27 07:22:01;;;;;;;5.03;4.53;;;6.40;99.90;;;;;;4973375;28;20721;-52
2021/12/27 07:24:27;;;;;;;6.10;4.78;;;6.60;99.90;;;;;;4974183;28;20238;-53
2021/12/27 07:26:53;;;;;;;5.93;5.33;;;6.60;99.90;;;;;;4973304;28;20259;-52
2021/12/27 07:29:20;;;;;;;5.50;4.77;;;6.60;99.90;;;;;;4973677;28;20215;-52
2021/12/27 07:31:45;;;;;;;5.57;4.97;;;6.60;99.90;;;;;;4973962;28;20192;-52
2021/12/27 07:34:12;;;;;;;5.67;5.07;;;6.60;99.90;;;;;;4973515;28;20183;-52
2021/12/27 07:36:38;;;;;;;6.38;4.93;;;6.90;99.90;;;;;;4973986;28;20187;-53
2021/12/27 07:39:04;;;;;;;5.40;4.90;;;6.80;99.90;;;;;;4973188;28;20219;-53
2021/12/27 07:41:30;;;;;;;23.85;17.35;;;6.60;99.90;;;;;;4974635;28;20188;-53
2021/12/27 07:43:56;;;;;;;7.90;5.33;;;6.90;99.90;;;;;;4978068;28;20214;-53
2021/12/27 07:46:25;;;;;;;7.93;5.80;;;7.10;99.90;;;;;;4974127;28;20526;-53
2021/12/27 07:48:51;;;;;;;6.45;5.82;;;6.90;99.90;;;;;;4972862;28;20562;-53
2021/12/27 07:51:16;;;;;;;6.05;4.90;;;6.90;99.90;;;;;;4972730;28;20566;-51
2021/12/27 07:53:42;;;;;;;9.50;5.40;;;6.80;99.90;;;;;;4979292;28;20278;-51
2021/12/27 07:56:09;;;;;;;5.77;5.20;;;7.30;99.90;;;;;;4988334;28;20199;-51
2021/12/27 07:58:35;;;;;;;7.50;5.40;;;7.20;99.90;;;;;;4972035;28;20450;-52
2021/12/27 08:01:01;;;;;;;5.60;5.00;;;7.20;99.90;;;;;;4973266;28;20195;-52
2021/12/27 08:03:27;;;;;;;5.90;4.95;;;7.20;99.90;;;;;;4973182;28;20194;-51
2021/12/27 08:05:53;;;;;;;5.87;5.27;;;7.00;99.90;;;;;;4972674;28;20185;-52
2021/12/27 08:08:19;;;;;;;6.87;5.60;;;7.20;99.90;;;;;;4972850;28;20430;-52
2021/12/27 08:10:45;;;;;;;5.10;4.60;;;7.10;99.90;;;;;;4972913;28;20783;-52
2021/12/27 08:13:11;;;;;;;6.07;5.07;;;7.30;99.90;;;;;;4985326;28;20188;-52
2021/12/27 08:15:37;;;;;;;6.90;5.60;;;7.30;99.90;;;;;;4973001;28;20436;-52
2021/12/27 08:18:03;;;;;;;6.35;5.75;;;6.80;99.90;;;;;;4972172;28;20215;-52
2021/12/27 08:20:28;;;;;;;6.50;5.53;;;7.30;99.90;;;;;;4972197;28;20184;-54
2021/12/27 08:22:54;;;;;;;7.63;5.00;;;7.50;99.90;;;;;;4969689;28;20567;-52
2021/12/27 08:25:20;;;;;;;8.10;6.17;;;7.10;99.90;;;;;;4972843;28;20546;-53
2021/12/27 08:27:46;;;;;;;6.20;5.60;;;7.10;99.90;;;;;;4972193;28;20195;-53
2021/12/27 08:30:13;;;;;;;8.50;5.90;;;7.50;99.90;;;;;;4972169;28;21057;-53
2021/12/27 08:32:42;;;;;;;6.90;5.45;;;7.50;99.90;;;;;;4972368;28;20672;-52
2021/12/27 08:35:09;;;;;;;9.85;8.27;;;7.30;99.90;;;;;;4972817;28;20188;-52
2021/12/27 08:37:35;;;;;;;8.15;6.22;;;7.40;99.90;;;;;;4999175;28;20215;-52
2021/12/27 08:40:02;;;;;;;6.32;5.70;;;7.40;99.90;;;;;;4972202;28;20207;-52
2021/12/27 08:42:28;;;;;;;5.40;4.90;;;7.50;99.90;;;;;;4978472;28;20684;-52
2021/12/27 08:44:53;;;;;;;7.27;5.60;;;7.80;99.90;;;;;;4972216;28;20310;-52
2021/12/27 08:47:19;;;;;;;5.53;5.00;;;7.90;99.90;;;;;;4972795;28;20417;-51
2021/12/27 08:49:45;;;;;;;5.95;4.93;;;8.00;99.90;;;;;;4972103;28;20650;-52
2021/12/27 08:52:11;;;;;;;8.57;6.20;;;8.10;99.90;;;;;;4972174;28;20184;-52
2021/12/27 08:54:37;;;;;;;6.32;5.15;;;8.20;99.90;;;;;;4972161;28;20493;-51
2021/12/27 08:57:04;;;;;;;6.90;5.83;;;8.20;99.90;;;;;;4969994;28;20196;-52
2021/12/27 08:59:30;;;;;;;7.57;6.88;;;8.70;99.90;;;;;;4972160;28;20489;-52
2021/12/27 09:01:57;;;;;;;4.95;4.45;;;8.60;99.90;;;;;;4979767;28;20262;-52
2021/12/27 09:04:23;;;;;;;5.20;4.63;;;8.20;99.90;;;;;;4972025;28;20180;-52
2021/12/27 09:06:49;;;;;;;5.20;4.70;;;8.70;99.90;;;;;;4981810;28;20451;-53
2021/12/27 09:09:15;;;;;;;11.40;8.98;;;9.10;99.90;;;;;;4971770;28;20275;-53
2021/12/27 09:11:42;;;;;;;5.15;4.65;;;8.90;99.90;;;;;;4971238;28;20189;-52
2021/12/27 09:14:07;;;;;;;6.45;4.70;;;9.00;99.90;;;;;;4972152;28;20192;-52
2021/12/27 09:16:33;;;;;;;4.87;4.20;;;8.50;99.90;;;;;;4971660;28;20193;-53
2021/12/27 09:18:59;;;;;;;5.10;4.60;;;8.90;99.90;;;;;;4972923;28;20243;-52
2021/12/27 09:21:25;;;;;;;6.53;5.20;;;9.30;99.90;;;;;;4971077;28;20902;-53
2021/12/27 09:23:51;;;;;;;4.80;4.40;;;9.00;99.90;;;;;;4971744;28;20185;-52
2021/12/27 09:26:17;;;;;;;5.47;4.43;;;9.20;99.90;;;;;;4971342;28;20192;-53
2021/12/27 09:28:43;;;;;;;4.87;3.97;;;9.40;99.90;;;;;;4974262;28;20208;-53
2021/12/27 09:31:09;;;;;;;5.13;4.33;;;9.70;99.90;;;;;;4971474;28;20613;-53
2021/12/27 09:33:35;;;;;;;4.80;4.30;;;9.90;99.90;;;;;;4970174;28;20448;-53
2021/12/27 09:36:00;;;;;;;5.53;5.00;;;10.50;99.90;;;;;;4971439;28;20771;-53
2021/12/27 09:38:26;;;;;;;4.60;4.20;;;11.10;99.90;;;;;;4971109;28;20271;-53
2021/12/27 09:40:52;;;;;;;5.17;4.17;;;10.90;99.90;;;;;;4971183;28;20429;-53
2021/12/27 09:43:18;;;;;;;5.30;4.40;;;10.90;99.90;;;;;;4970985;28;20547;-53
2021/12/27 09:45:43;;;;;;;4.63;4.07;;;10.80;99.90;;;;;;4971774;28;20426;-53
2021/12/27 09:48:09;;;;;;;7.30;5.50;;;10.50;99.90;;;;;;4970240;28;20214;-53
2021/12/27 09:50:43;;;;;;;4.40;4.00;;;10.00;99.90;;;;;;4970795;28;20245;-52
2021/12/27 09:53:09;;;;;;;4.78;4.32;;;10.60;99.90;;;;;;4972118;28;20185;-52
2021/12/27 09:55:35;;;;;;;3.80;3.50;;;10.70;99.90;;;;;;4970947;28;20203;-53
2021/12/27 09:58:00;;;;;;;4.03;3.63;;;10.60;99.90;;;;;;4970195;28;20476;-52
2021/12/27 10:00:27;;;;;;;3.70;3.33;;;10.60;99.90;;;;;;4971117;28;20626;-52
2021/12/27 10:02:55;;;;;;;5.07;4.45;;;10.50;99.90;;;;;;4971464;28;20197;-52
2021/12/27 10:05:24;;;;;;;3.63;3.22;;;10.70;99.90;;;;;;4971232;28;20193;-52
2021/12/27 10:07:49;;;;;;;4.65;3.75;;;10.70;99.90;;;;;;4971076;28;20208;-52
2021/12/27 10:10:15;;;;;;;4.20;3.70;;;10.60;99.90;;;;;;4978873;28;20193;-52
2021/12/27 10:12:41;;;;;;;4.67;4.17;;;10.80;99.90;;;;;;4981296;28;20199;-53
2021/12/27 10:15:10;;;;;;;2.95;2.72;;;10.80;99.90;;;;;;4972818;28;20437;-52
2021/12/27 10:17:37;;;;;;;2.63;2.42;;;11.40;99.90;;;;;;4970863;28;20257;-52
2021/12/27 10:20:16;;;;;;;3.20;2.90;;;11.40;99.90;;;;;;4970610;28;20230;-52
2021/12/27 10:22:45;;;;;;;3.10;2.70;;;12.00;99.90;;;;;;4970961;28;20192;-53
2021/12/27 10:25:15;;;;;;;2.95;2.65;;;12.20;99.90;;;;;;4971539;28;20550;-53
2021/12/27 10:27:42;;;;;;;4.35;3.63;;;12.50;99.90;;;;;;4970404;28;20192;-53
2021/12/27 10:30:15;;;;;;;2.83;2.63;;;12.90;99.90;;;;;;4974223;28;20233;-54
2021/12/27 10:32:41;;;;;;;2.60;2.40;;;13.10;99.90;;;;;;4985556;28;20649;-54
2021/12/27 10:35:09;;;;;;;3.15;2.75;;;13.90;99.90;;;;;;4981599;28;20652;-51
2021/12/27 10:37:36;;;;;;;3.88;3.13;;;13.40;99.90;;;;;;4987963;28;20219;-54
2021/12/27 10:40:10;;;;;;;3.25;2.80;;;13.60;99.90;;;;;;4974600;28;20204;-54
2021/12/27 10:42:43;;;;;;;2.83;2.63;;;14.30;99.90;;;;;;4972474;28;20239;-55
2021/12/27 10:45:20;;;;;;;3.97;2.85;;;15.30;98.20;;;;;;4967059;28;20196;-53
2021/12/27 10:47:50;;;;;;;4.03;2.45;;;15.00;98.00;;;;;;4974260;28;20180;-52
2021/12/27 10:50:18;;;;;;;2.53;2.33;;;15.70;97.10;;;;;;4983827;28;20282;-54
2021/12/27 10:52:43;;;;;;;3.22;2.53;;;15.30;96.80;;;;;;4974427;28;20239;-53
2021/12/27 10:55:10;;;;;;;3.10;2.80;;;15.90;96.40;;;;;;4972819;28;20192;-53
2021/12/27 10:57:36;;;;;;;2.92;2.63;;;15.90;95.60;;;;;;4973631;28;20207;-53
2021/12/27 11:00:34;;;;;;;5.33;2.83;;;16.20;95.20;;;;;;4975858;28;20207;-52
2021/12/27 11:03:02;;;;;;;3.10;2.80;;;15.40;95.20;;;;;;4983369;28;20247;-53
2021/12/27 11:05:30;;;;;;;3.40;3.00;;;15.50;96.70;;;;;;4973606;28;20176;-53
2021/12/27 11:07:59;;;;;;;3.08;2.78;;;15.90;96.20;;;;;;4973674;28;20184;-53
2021/12/27 11:10:25;;;;;;;3.55;3.25;;;15.90;95.60;;;;;;4974593;28;20188;-53
2021/12/27 11:12:51;;;;;;;3.23;2.97;;;15.40;95.80;;;;;;4973371;28;20192;-53
2021/12/27 11:15:17;;;;;;;3.10;2.90;;;15.60;96.00;;;;;;4973954;28;20474;-53
2021/12/27 11:17:44;;;;;;;3.33;3.03;;;15.70;96.20;;;;;;4982010;28;20207;-54
2021/12/27 11:20:13;;;;;;;3.40;2.85;;;15.40;95.80;;;;;;4973995;28;20335;-53
2021/12/27 11:22:42;;;;;;;2.85;2.65;;;15.50;95.40;;;;;;4973213;28;20184;-53
2021/12/27 11:25:26;;;;;;;3.40;3.08;;;15.00;95.90;;;;;;4973730;28;20560;-53
2021/12/27 11:27:51;;;;;;;3.45;3.10;;;14.60;96.70;;;;;;4972883;28;20222;-53
2021/12/27 11:30:23;;;;;;;4.57;3.03;;;14.00;97.60;;;;;;4973711;28;20233;-54
2021/12/27 11:33:01;;;;;;;3.85;3.40;;;13.50;98.30;;;;;;4973774;28;20239;-53
2021/12/27 11:35:50;;;;;;;3.20;3.00;;;13.50;99.50;;;;;;4976456;28;20545;-53
2021/12/27 11:38:37;;;;;;;3.53;2.92;;;13.10;99.90;;;;;;4980264;28;20254;-53
2021/12/27 11:41:23;;;;;;;3.50;3.20;;;12.70;99.90;;;;;;4972980;28;20184;-52
2021/12/27 11:44:17;;;;;;;3.08;2.80;;;12.70;99.90;;;;;;4966901;28;20272;-53
2021/12/27 11:46:48;;;;;;;3.55;3.20;;;12.70;99.90;;;;;;4972886;28;20179;-52
2021/12/27 11:49:15;;;;;;;3.75;3.30;;;12.60;99.90;;;;;;4972956;28;20215;-52
2021/12/27 11:51:43;;;;;;;4.00;3.00;;;12.80;99.90;;;;;;4983603;28;20188;-54
2021/12/27 11:54:33;;;;;;;3.60;3.30;;;12.60;99.90;;;;;;4974353;28;20184;-53
2021/12/27 11:56:58;;;;;;;3.67;3.20;;;12.60;99.90;;;;;;4972511;28;20239;-53
2021/12/27 11:59:36;;;;;;;3.53;3.13;;;12.60;99.90;;;;;;4973063;28;20208;-54
2021/12/27 12:02:23;;;;;;;3.33;3.03;;;12.40;99.90;;;;;;4973002;28;20438;-54
2021/12/27 12:04:56;;;;;;;3.28;2.97;;;12.50;99.90;;;;;;4972817;28;20642;-53
2021/12/27 12:07:33;;;;;;;3.85;3.53;;;12.70;99.90;;;;;;4972516;28;20275;-53
2021/12/27 12:10:20;;;;;;;3.60;3.30;;;12.60;99.90;;;;;;4976611;28;20703;-53
2021/12/27 12:13:15;;;;;;;3.92;3.30;;;12.70;99.90;;;;;;4972710;28;20191;-53
2021/12/27 12:16:04;;;;;;;3.30;3.00;;;12.40;99.90;;;;;;4973055;28;20242;-53
2021/12/27 12:18:31;;;;;;;4.13;3.03;;;12.50;99.90;;;;;;4972461;28;20219;-53
2021/12/27 12:20:59;;;;;;;3.60;3.17;;;12.50;99.90;;;;;;4972681;28;20279;-53
2021/12/27 12:23:25;;;;;;;3.60;3.30;;;12.60;99.90;;;;;;4972394;28;20219;-53
2021/12/27 12:26:02;;;;;;;3.57;3.30;;;12.80;99.90;;;;;;4973138;28;21006;-52
2021/12/27 12:28:29;;;;;;;4.75;3.45;;;12.50;99.90;;;;;;4981390;28;20463;-54
2021/12/27 12:30:56;;;;;;;4.60;4.20;;;12.30;99.90;;;;;;4987570;28;20751;-54
2021/12/27 12:33:27;;;;;;;3.83;3.30;;;12.50;99.90;;;;;;4972469;28;20195;-52
2021/12/27 12:36:04;;;;;;;5.35;4.00;;;12.30;99.90;;;;;;4971642;28;20199;-53
2021/12/27 12:38:38;;;;;;;4.63;3.55;;;12.20;99.90;;;;;;4972185;28;20245;-53
2021/12/27 12:41:10;;;;;;;3.75;3.45;;;12.10;99.90;;;;;;4972239;28;20295;-53
2021/12/27 12:43:41;;;;;;;3.58;3.10;;;12.10;99.90;;;;;;4972578;28;20198;-53
2021/12/27 12:46:18;;;;;;;4.28;3.88;;;11.70;99.90;;;;;;4971820;28;20184;-53
2021/12/27 12:48:55;;;;;;;3.92;3.53;;;12.20;99.90;;;;;;4970582;28;20219;-52
2021/12/27 12:51:42;;;;;;;6.25;4.35;;;12.30;99.90;;;;;;4971685;28;20190;-52
2021/12/27 12:54:24;;;;;;;5.70;3.75;;;11.90;99.90;;;;;;4972193;28;20191;-53
2021/12/27 12:57:06;;;;;;;4.70;4.30;;;12.00;99.90;;;;;;4971143;28;20530;-52
2021/12/27 12:59:52;;;;;;;5.20;3.85;;;11.90;99.90;;;;;;4972596;28;20207;-53